sensor_id;sensor_type;location;lat;lon;timestamp;P1;durP1;ratioP1;P2;durP2;ratioP2
25015;SDS011;13029;46.286;7.488;2023-05-07T00:00:50;2.25;;;1.40;;
25015;SDS011;13029;46.286;7.488;2023-05-07T00:03:16;2.70;;;1.67;;
25015;SDS011;13029;46.286;7.488;2023-05-07T00:05:41;2.50;;;1.50;;
25015;SDS011;13029;46.286;7.488;2023-05-07T00:08:07;2.17;;;1.15;;
25015;SDS011;13029;46.286;7.488;2023-05-07T00:10:33;1.35;;;1.10;;
25015;SDS011;13029;46.286;7.488;2023-05-07T00:12:58;1.67;;;1.20;;
25015;SDS011;13029;46.286;7.488;2023-05-07T00:15:23;3.88;;;1.42;;
25015;SDS011;13029;46.286;7.488;2023-05-07T00:17:49;2.60;;;1.38;;
25015;SDS011;13029;46.286;7.488;2023-05-07T00:20:14;2.72;;;1.50;;
25015;SDS011;13029;46.286;7.488;2023-05-07T00:22:40;4.53;;;1.30;;
25015;SDS011;13029;46.286;7.488;2023-05-07T00:25:05;2.58;;;1.55;;
25015;SDS011;13029;46.286;7.488;2023-05-07T00:27:31;4.13;;;1.23;;
25015;SDS011;13029;46.286;7.488;2023-05-07T00:29:56;3.35;;;1.20;;
25015;SDS011;13029;46.286;7.488;2023-05-07T00:32:22;3.20;;;1.70;;
25015;SDS011;13029;46.286;7.488;2023-05-07T00:34:47;1.85;;;1.58;;
25015;SDS011;13029;46.286;7.488;2023-05-07T00:37:12;4.10;;;1.60;;
25015;SDS011;13029;46.286;7.488;2023-05-07T00:39:38;4.88;;;1.20;;
25015;SDS011;13029;46.286;7.488;2023-05-07T00:42:03;4.38;;;1.55;;
25015;SDS011;13029;46.286;7.488;2023-05-07T00:44:28;1.73;;;1.30;;
25015;SDS011;13029;46.286;7.488;2023-05-07T00:46:54;1.13;;;1.02;;
25015;SDS011;13029;46.286;7.488;2023-05-07T00:49:20;3.97;;;1.50;;
25015;SDS011;13029;46.286;7.488;2023-05-07T00:51:46;1.80;;;1.30;;
25015;SDS011;13029;46.286;7.488;2023-05-07T00:54:11;1.33;;;1.05;;
25015;SDS011;13029;46.286;7.488;2023-05-07T00:56:38;3.17;;;1.63;;
25015;SDS011;13029;46.286;7.488;2023-05-07T00:59:04;1.67;;;1.10;;
25015;SDS011;13029;46.286;7.488;2023-05-07T01:01:29;2.45;;;1.00;;
25015;SDS011;13029;46.286;7.488;2023-05-07T01:03:56;3.00;;;1.00;;
25015;SDS011;13029;46.286;7.488;2023-05-07T01:06:22;1.55;;;1.00;;
25015;SDS011;13029;46.286;7.488;2023-05-07T01:08:48;2.53;;;1.40;;
25015;SDS011;13029;46.286;7.488;2023-05-07T01:11:15;1.35;;;1.20;;
25015;SDS011;13029;46.286;7.488;2023-05-07T01:13:41;1.55;;;1.13;;
25015;SDS011;13029;46.286;7.488;2023-05-07T01:16:08;1.92;;;1.00;;
25015;SDS011;13029;46.286;7.488;2023-05-07T01:18:33;8.82;;;1.20;;
25015;SDS011;13029;46.286;7.488;2023-05-07T01:20:59;5.93;;;1.52;;
25015;SDS011;13029;46.286;7.488;2023-05-07T01:23:26;1.75;;;1.10;;
25015;SDS011;13029;46.286;7.488;2023-05-07T01:25:52;2.75;;;0.90;;
25015;SDS011;13029;46.286;7.488;2023-05-07T01:28:18;4.82;;;1.00;;
25015;SDS011;13029;46.286;7.488;2023-05-07T01:30:45;2.15;;;1.20;;
25015;SDS011;13029;46.286;7.488;2023-05-07T01:33:13;1.90;;;1.15;;
25015;SDS011;13029;46.286;7.488;2023-05-07T01:35:40;1.23;;;1.05;;
25015;SDS011;13029;46.286;7.488;2023-05-07T01:38:07;1.67;;;1.00;;
25015;SDS011;13029;46.286;7.488;2023-05-07T01:40:33;2.45;;;0.85;;
25015;SDS011;13029;46.286;7.488;2023-05-07T01:42:59;2.85;;;1.10;;
25015;SDS011;13029;46.286;7.488;2023-05-07T01:45:24;2.03;;;1.08;;
25015;SDS011;13029;46.286;7.488;2023-05-07T01:47:50;1.85;;;1.00;;
25015;SDS011;13029;46.286;7.488;2023-05-07T01:50:17;1.55;;;1.05;;
25015;SDS011;13029;46.286;7.488;2023-05-07T01:52:43;1.65;;;1.10;;
25015;SDS011;13029;46.286;7.488;2023-05-07T01:55:09;2.25;;;1.00;;
25015;SDS011;13029;46.286;7.488;2023-05-07T01:57:34;2.22;;;1.10;;
25015;SDS011;13029;46.286;7.488;2023-05-07T01:59:59;2.45;;;1.17;;
25015;SDS011;13029;46.286;7.488;2023-05-07T02:02:25;3.63;;;1.30;;
25015;SDS011;13029;46.286;7.488;2023-05-07T02:04:50;2.47;;;0.95;;
25015;SDS011;13029;46.286;7.488;2023-05-07T02:07:15;2.78;;;1.08;;
25015;SDS011;13029;46.286;7.488;2023-05-07T02:09:41;4.28;;;1.23;;
25015;SDS011;13029;46.286;7.488;2023-05-07T02:12:06;1.38;;;1.10;;
25015;SDS011;13029;46.286;7.488;2023-05-07T02:14:31;1.50;;;1.15;;
25015;SDS011;13029;46.286;7.488;2023-05-07T02:16:56;1.52;;;0.95;;
25015;SDS011;13029;46.286;7.488;2023-05-07T02:19:22;1.55;;;0.98;;
25015;SDS011;13029;46.286;7.488;2023-05-07T02:21:47;3.60;;;1.10;;
25015;SDS011;13029;46.286;7.488;2023-05-07T02:24:13;1.58;;;1.10;;
25015;SDS011;13029;46.286;7.488;2023-05-07T02:26:39;2.65;;;1.00;;
25015;SDS011;13029;46.286;7.488;2023-05-07T02:29:05;2.80;;;1.05;;
25015;SDS011;13029;46.286;7.488;2023-05-07T02:31:31;3.70;;;1.17;;
25015;SDS011;13029;46.286;7.488;2023-05-07T02:33:58;2.17;;;1.20;;
25015;SDS011;13029;46.286;7.488;2023-05-07T02:36:24;3.78;;;1.30;;
25015;SDS011;13029;46.286;7.488;2023-05-07T02:38:49;1.67;;;1.20;;
25015;SDS011;13029;46.286;7.488;2023-05-07T02:41:14;1.00;;;0.90;;
25015;SDS011;13029;46.286;7.488;2023-05-07T02:43:40;2.65;;;1.10;;
25015;SDS011;13029;46.286;7.488;2023-05-07T02:46:06;2.28;;;1.50;;
25015;SDS011;13029;46.286;7.488;2023-05-07T02:48:32;3.25;;;1.20;;
25015;SDS011;13029;46.286;7.488;2023-05-07T02:50:58;1.83;;;1.10;;
25015;SDS011;13029;46.286;7.488;2023-05-07T02:53:24;2.20;;;1.00;;
25015;SDS011;13029;46.286;7.488;2023-05-07T02:55:51;3.97;;;1.20;;
25015;SDS011;13029;46.286;7.488;2023-05-07T02:58:26;3.30;;;1.00;;
25015;SDS011;13029;46.286;7.488;2023-05-07T03:00:51;3.83;;;1.17;;
25015;SDS011;13029;46.286;7.488;2023-05-07T03:03:17;4.93;;;1.25;;
25015;SDS011;13029;46.286;7.488;2023-05-07T03:05:43;1.55;;;1.20;;
25015;SDS011;13029;46.286;7.488;2023-05-07T03:08:08;3.35;;;1.08;;
25015;SDS011;13029;46.286;7.488;2023-05-07T03:10:35;3.75;;;1.30;;
25015;SDS011;13029;46.286;7.488;2023-05-07T03:13:01;1.80;;;1.20;;
25015;SDS011;13029;46.286;7.488;2023-05-07T03:15:27;3.20;;;1.33;;
25015;SDS011;13029;46.286;7.488;2023-05-07T03:17:52;1.98;;;1.10;;
25015;SDS011;13029;46.286;7.488;2023-05-07T03:20:17;3.10;;;1.20;;
25015;SDS011;13029;46.286;7.488;2023-05-07T03:22:43;1.30;;;1.00;;
25015;SDS011;13029;46.286;7.488;2023-05-07T03:25:08;1.70;;;1.23;;
25015;SDS011;13029;46.286;7.488;2023-05-07T03:27:34;1.88;;;1.40;;
25015;SDS011;13029;46.286;7.488;2023-05-07T03:29:59;3.63;;;1.13;;
25015;SDS011;13029;46.286;7.488;2023-05-07T03:32:25;1.60;;;1.10;;
25015;SDS011;13029;46.286;7.488;2023-05-07T03:34:50;1.65;;;1.33;;
25015;SDS011;13029;46.286;7.488;2023-05-07T03:37:16;3.70;;;1.35;;
25015;SDS011;13029;46.286;7.488;2023-05-07T03:39:41;2.63;;;1.30;;
25015;SDS011;13029;46.286;7.488;2023-05-07T03:42:06;2.75;;;1.40;;
25015;SDS011;13029;46.286;7.488;2023-05-07T03:44:32;1.77;;;0.90;;
25015;SDS011;13029;46.286;7.488;2023-05-07T03:46:57;1.13;;;1.02;;
25015;SDS011;13029;46.286;7.488;2023-05-07T03:49:22;5.57;;;1.83;;
25015;SDS011;13029;46.286;7.488;2023-05-07T03:51:48;2.17;;;1.10;;
25015;SDS011;13029;46.286;7.488;2023-05-07T03:54:13;2.20;;;1.05;;
25015;SDS011;13029;46.286;7.488;2023-05-07T03:56:38;1.92;;;1.20;;
25015;SDS011;13029;46.286;7.488;2023-05-07T03:59:04;2.33;;;1.20;;
25015;SDS011;13029;46.286;7.488;2023-05-07T04:01:29;4.40;;;1.70;;
25015;SDS011;13029;46.286;7.488;2023-05-07T04:03:55;3.15;;;1.30;;
25015;SDS011;13029;46.286;7.488;2023-05-07T04:06:20;3.22;;;1.30;;
25015;SDS011;13029;46.286;7.488;2023-05-07T04:08:45;2.45;;;1.35;;
25015;SDS011;13029;46.286;7.488;2023-05-07T04:11:11;3.78;;;1.90;;
25015;SDS011;13029;46.286;7.488;2023-05-07T04:13:36;4.60;;;1.30;;
25015;SDS011;13029;46.286;7.488;2023-05-07T04:16:02;2.65;;;1.30;;
25015;SDS011;13029;46.286;7.488;2023-05-07T04:18:28;2.60;;;1.10;;
25015;SDS011;13029;46.286;7.488;2023-05-07T04:20:54;3.60;;;1.63;;
25015;SDS011;13029;46.286;7.488;2023-05-07T04:23:19;2.42;;;1.20;;
25015;SDS011;13029;46.286;7.488;2023-05-07T04:25:45;2.45;;;1.30;;
25015;SDS011;13029;46.286;7.488;2023-05-07T04:28:10;3.20;;;1.05;;
25015;SDS011;13029;46.286;7.488;2023-05-07T04:30:36;2.63;;;1.27;;
25015;SDS011;13029;46.286;7.488;2023-05-07T04:33:02;1.50;;;1.27;;
25015;SDS011;13029;46.286;7.488;2023-05-07T04:35:27;1.55;;;1.15;;
25015;SDS011;13029;46.286;7.488;2023-05-07T04:37:52;2.85;;;1.23;;
25015;SDS011;13029;46.286;7.488;2023-05-07T04:40:18;1.25;;;1.15;;
25015;SDS011;13029;46.286;7.488;2023-05-07T04:42:43;5.63;;;1.38;;
25015;SDS011;13029;46.286;7.488;2023-05-07T04:45:08;3.50;;;1.30;;
25015;SDS011;13029;46.286;7.488;2023-05-07T04:47:35;6.43;;;1.30;;
25015;SDS011;13029;46.286;7.488;2023-05-07T04:50:00;1.10;;;1.00;;
25015;SDS011;13029;46.286;7.488;2023-05-07T04:52:26;2.53;;;1.00;;
25015;SDS011;13029;46.286;7.488;2023-05-07T04:54:51;1.92;;;1.25;;
25015;SDS011;13029;46.286;7.488;2023-05-07T04:57:17;4.95;;;1.30;;
25015;SDS011;13029;46.286;7.488;2023-05-07T04:59:42;3.03;;;1.30;;
25015;SDS011;13029;46.286;7.488;2023-05-07T05:02:08;2.10;;;1.30;;
25015;SDS011;13029;46.286;7.488;2023-05-07T05:04:34;1.95;;;1.10;;
25015;SDS011;13029;46.286;7.488;2023-05-07T05:06:59;3.13;;;1.13;;
25015;SDS011;13029;46.286;7.488;2023-05-07T05:09:25;2.20;;;0.98;;
25015;SDS011;13029;46.286;7.488;2023-05-07T05:11:50;1.88;;;1.30;;
25015;SDS011;13029;46.286;7.488;2023-05-07T05:14:16;1.83;;;1.15;;
25015;SDS011;13029;46.286;7.488;2023-05-07T05:16:41;1.77;;;1.35;;
25015;SDS011;13029;46.286;7.488;2023-05-07T05:19:07;2.38;;;1.33;;
25015;SDS011;13029;46.286;7.488;2023-05-07T05:21:32;2.08;;;1.20;;
25015;SDS011;13029;46.286;7.488;2023-05-07T05:23:58;3.67;;;1.73;;
25015;SDS011;13029;46.286;7.488;2023-05-07T05:26:23;5.70;;;1.52;;
25015;SDS011;13029;46.286;7.488;2023-05-07T05:28:48;1.77;;;1.38;;
25015;SDS011;13029;46.286;7.488;2023-05-07T05:31:14;3.85;;;1.65;;
25015;SDS011;13029;46.286;7.488;2023-05-07T05:33:40;2.88;;;1.48;;
25015;SDS011;13029;46.286;7.488;2023-05-07T05:36:05;5.40;;;1.42;;
25015;SDS011;13029;46.286;7.488;2023-05-07T05:38:31;1.65;;;1.40;;
25015;SDS011;13029;46.286;7.488;2023-05-07T05:40:56;1.75;;;1.65;;
25015;SDS011;13029;46.286;7.488;2023-05-07T05:43:22;6.78;;;1.77;;
25015;SDS011;13029;46.286;7.488;2023-05-07T05:45:47;4.32;;;1.50;;
25015;SDS011;13029;46.286;7.488;2023-05-07T05:48:12;2.33;;;2.03;;
25015;SDS011;13029;46.286;7.488;2023-05-07T05:50:39;2.22;;;1.33;;
25015;SDS011;13029;46.286;7.488;2023-05-07T05:53:04;2.72;;;1.42;;
25015;SDS011;13029;46.286;7.488;2023-05-07T05:55:29;2.22;;;1.40;;
25015;SDS011;13029;46.286;7.488;2023-05-07T05:57:57;1.55;;;1.02;;
25015;SDS011;13029;46.286;7.488;2023-05-07T06:00:22;3.20;;;1.30;;
25015;SDS011;13029;46.286;7.488;2023-05-07T06:02:48;3.03;;;1.38;;
25015;SDS011;13029;46.286;7.488;2023-05-07T06:05:13;3.38;;;1.70;;
25015;SDS011;13029;46.286;7.488;2023-05-07T06:07:39;2.45;;;1.63;;
25015;SDS011;13029;46.286;7.488;2023-05-07T06:10:04;5.55;;;2.17;;
25015;SDS011;13029;46.286;7.488;2023-05-07T06:12:30;6.35;;;2.22;;
25015;SDS011;13029;46.286;7.488;2023-05-07T06:14:55;2.78;;;1.30;;
25015;SDS011;13029;46.286;7.488;2023-05-07T06:17:20;2.15;;;1.52;;
25015;SDS011;13029;46.286;7.488;2023-05-07T06:19:46;1.52;;;1.20;;
25015;SDS011;13029;46.286;7.488;2023-05-07T06:22:11;2.28;;;1.10;;
25015;SDS011;13029;46.286;7.488;2023-05-07T06:24:36;2.33;;;1.50;;
25015;SDS011;13029;46.286;7.488;2023-05-07T06:27:02;3.03;;;1.83;;
25015;SDS011;13029;46.286;7.488;2023-05-07T06:29:27;3.80;;;2.10;;
25015;SDS011;13029;46.286;7.488;2023-05-07T06:31:53;3.70;;;2.03;;
25015;SDS011;13029;46.286;7.488;2023-05-07T06:34:18;5.82;;;1.80;;
25015;SDS011;13029;46.286;7.488;2023-05-07T06:36:43;2.53;;;1.70;;
25015;SDS011;13029;46.286;7.488;2023-05-07T06:39:09;3.17;;;1.77;;
25015;SDS011;13029;46.286;7.488;2023-05-07T06:41:34;2.95;;;1.58;;
25015;SDS011;13029;46.286;7.488;2023-05-07T06:44:01;3.13;;;1.75;;
25015;SDS011;13029;46.286;7.488;2023-05-07T06:46:27;2.42;;;1.52;;
25015;SDS011;13029;46.286;7.488;2023-05-07T06:48:52;2.75;;;1.42;;
25015;SDS011;13029;46.286;7.488;2023-05-07T06:51:18;1.83;;;1.58;;
25015;SDS011;13029;46.286;7.488;2023-05-07T06:53:43;2.88;;;1.70;;
25015;SDS011;13029;46.286;7.488;2023-05-07T06:56:08;4.38;;;1.88;;
25015;SDS011;13029;46.286;7.488;2023-05-07T06:58:34;1.83;;;1.52;;
25015;SDS011;13029;46.286;7.488;2023-05-07T07:00:59;3.22;;;1.70;;
25015;SDS011;13029;46.286;7.488;2023-05-07T07:03:25;3.60;;;1.45;;
25015;SDS011;13029;46.286;7.488;2023-05-07T07:05:53;3.95;;;1.50;;
25015;SDS011;13029;46.286;7.488;2023-05-07T07:08:19;4.43;;;1.70;;
25015;SDS011;13029;46.286;7.488;2023-05-07T07:10:46;6.22;;;1.92;;
25015;SDS011;13029;46.286;7.488;2023-05-07T07:13:12;3.97;;;2.45;;
25015;SDS011;13029;46.286;7.488;2023-05-07T07:15:37;2.55;;;1.23;;
25015;SDS011;13029;46.286;7.488;2023-05-07T07:18:03;2.15;;;1.30;;
25015;SDS011;13029;46.286;7.488;2023-05-07T07:20:28;1.75;;;1.35;;
25015;SDS011;13029;46.286;7.488;2023-05-07T07:22:53;3.75;;;1.60;;
25015;SDS011;13029;46.286;7.488;2023-05-07T07:25:19;4.25;;;1.95;;
25015;SDS011;13029;46.286;7.488;2023-05-07T07:27:44;4.00;;;1.73;;
25015;SDS011;13029;46.286;7.488;2023-05-07T07:30:10;1.90;;;1.50;;
25015;SDS011;13029;46.286;7.488;2023-05-07T07:32:35;4.00;;;1.40;;
25015;SDS011;13029;46.286;7.488;2023-05-07T07:35:00;3.65;;;1.52;;
25015;SDS011;13029;46.286;7.488;2023-05-07T07:37:26;2.25;;;1.40;;
25015;SDS011;13029;46.286;7.488;2023-05-07T07:39:52;3.85;;;1.95;;
25015;SDS011;13029;46.286;7.488;2023-05-07T07:42:17;4.18;;;2.25;;
25015;SDS011;13029;46.286;7.488;2023-05-07T07:44:43;2.72;;;1.77;;
25015;SDS011;13029;46.286;7.488;2023-05-07T07:47:08;3.78;;;1.90;;
25015;SDS011;13029;46.286;7.488;2023-05-07T07:49:33;6.55;;;1.75;;
25015;SDS011;13029;46.286;7.488;2023-05-07T07:51:59;5.80;;;2.20;;
25015;SDS011;13029;46.286;7.488;2023-05-07T07:54:24;4.78;;;3.00;;
25015;SDS011;13029;46.286;7.488;2023-05-07T07:56:50;4.13;;;2.30;;
25015;SDS011;13029;46.286;7.488;2023-05-07T07:59:16;4.00;;;2.10;;
25015;SDS011;13029;46.286;7.488;2023-05-07T08:01:43;2.53;;;1.55;;
25015;SDS011;13029;46.286;7.488;2023-05-07T08:04:09;4.57;;;1.95;;
25015;SDS011;13029;46.286;7.488;2023-05-07T08:06:34;4.85;;;1.85;;
25015;SDS011;13029;46.286;7.488;2023-05-07T08:08:59;3.53;;;1.70;;
25015;SDS011;13029;46.286;7.488;2023-05-07T08:11:25;2.90;;;1.70;;
25015;SDS011;13029;46.286;7.488;2023-05-07T08:13:50;3.97;;;1.40;;
25015;SDS011;13029;46.286;7.488;2023-05-07T08:16:16;4.22;;;1.92;;
25015;SDS011;13029;46.286;7.488;2023-05-07T08:18:41;5.18;;;1.92;;
25015;SDS011;13029;46.286;7.488;2023-05-07T08:21:06;5.55;;;2.28;;
25015;SDS011;13029;46.286;7.488;2023-05-07T08:23:32;3.35;;;1.83;;
25015;SDS011;13029;46.286;7.488;2023-05-07T08:25:59;3.17;;;1.98;;
25015;SDS011;13029;46.286;7.488;2023-05-07T08:28:25;3.55;;;2.17;;
25015;SDS011;13029;46.286;7.488;2023-05-07T08:30:50;5.85;;;2.17;;
25015;SDS011;13029;46.286;7.488;2023-05-07T08:33:16;4.97;;;2.70;;
25015;SDS011;13029;46.286;7.488;2023-05-07T08:35:41;7.50;;;2.20;;
25015;SDS011;13029;46.286;7.488;2023-05-07T08:38:06;5.65;;;2.38;;
25015;SDS011;13029;46.286;7.488;2023-05-07T08:40:33;4.07;;;2.10;;
25015;SDS011;13029;46.286;7.488;2023-05-07T08:43:07;7.28;;;2.13;;
25015;SDS011;13029;46.286;7.488;2023-05-07T08:45:33;3.08;;;1.90;;
25015;SDS011;13029;46.286;7.488;2023-05-07T08:47:59;4.28;;;2.28;;
25015;SDS011;13029;46.286;7.488;2023-05-07T08:50:27;3.72;;;2.10;;
25015;SDS011;13029;46.286;7.488;2023-05-07T08:52:53;2.78;;;1.92;;
25015;SDS011;13029;46.286;7.488;2023-05-07T08:55:18;2.65;;;1.77;;
25015;SDS011;13029;46.286;7.488;2023-05-07T08:57:44;3.20;;;2.10;;
25015;SDS011;13029;46.286;7.488;2023-05-07T09:00:09;3.92;;;1.80;;
25015;SDS011;13029;46.286;7.488;2023-05-07T09:02:36;2.55;;;1.50;;
25015;SDS011;13029;46.286;7.488;2023-05-07T09:05:01;4.03;;;1.70;;
25015;SDS011;13029;46.286;7.488;2023-05-07T09:07:27;3.03;;;1.85;;
25015;SDS011;13029;46.286;7.488;2023-05-07T09:09:53;5.28;;;2.00;;
25015;SDS011;13029;46.286;7.488;2023-05-07T09:12:20;4.55;;;2.25;;
25015;SDS011;13029;46.286;7.488;2023-05-07T09:14:46;7.07;;;1.77;;
25015;SDS011;13029;46.286;7.488;2023-05-07T09:17:12;4.10;;;1.70;;
25015;SDS011;13029;46.286;7.488;2023-05-07T09:19:37;6.22;;;1.75;;
25015;SDS011;13029;46.286;7.488;2023-05-07T09:22:03;3.92;;;1.67;;
25015;SDS011;13029;46.286;7.488;2023-05-07T09:24:29;5.75;;;2.60;;
25015;SDS011;13029;46.286;7.488;2023-05-07T09:26:59;8.10;;;2.37;;
25015;SDS011;13029;46.286;7.488;2023-05-07T09:29:25;3.10;;;1.90;;
25015;SDS011;13029;46.286;7.488;2023-05-07T09:31:50;5.13;;;2.90;;
25015;SDS011;13029;46.286;7.488;2023-05-07T09:34:16;8.95;;;3.10;;
25015;SDS011;13029;46.286;7.488;2023-05-07T09:36:41;3.20;;;2.20;;
25015;SDS011;13029;46.286;7.488;2023-05-07T09:39:07;3.75;;;2.20;;
25015;SDS011;13029;46.286;7.488;2023-05-07T09:41:32;1.73;;;1.33;;
25015;SDS011;13029;46.286;7.488;2023-05-07T09:43:57;2.47;;;1.50;;
25015;SDS011;13029;46.286;7.488;2023-05-07T09:46:32;2.67;;;1.60;;
25015;SDS011;13029;46.286;7.488;2023-05-07T09:48:59;3.03;;;1.65;;
25015;SDS011;13029;46.286;7.488;2023-05-07T09:51:33;3.15;;;1.63;;
25015;SDS011;13029;46.286;7.488;2023-05-07T09:54:02;3.38;;;1.98;;
25015;SDS011;13029;46.286;7.488;2023-05-07T09:56:31;2.85;;;2.00;;
25015;SDS011;13029;46.286;7.488;2023-05-07T09:58:57;2.83;;;1.70;;
25015;SDS011;13029;46.286;7.488;2023-05-07T10:01:25;2.85;;;1.45;;
25015;SDS011;13029;46.286;7.488;2023-05-07T10:03:50;2.00;;;1.33;;
25015;SDS011;13029;46.286;7.488;2023-05-07T10:06:16;1.92;;;1.30;;
25015;SDS011;13029;46.286;7.488;2023-05-07T10:08:42;3.53;;;2.47;;
25015;SDS011;13029;46.286;7.488;2023-05-07T10:11:07;2.75;;;1.83;;
25015;SDS011;13029;46.286;7.488;2023-05-07T10:13:34;2.65;;;1.65;;
25015;SDS011;13029;46.286;7.488;2023-05-07T10:16:06;6.57;;;2.38;;
25015;SDS011;13029;46.286;7.488;2023-05-07T10:18:31;1.92;;;1.40;;
25015;SDS011;13029;46.286;7.488;2023-05-07T10:21:06;6.22;;;1.90;;
25015;SDS011;13029;46.286;7.488;2023-05-07T10:23:33;3.90;;;1.60;;
25015;SDS011;13029;46.286;7.488;2023-05-07T10:25:59;1.50;;;1.23;;
25015;SDS011;13029;46.286;7.488;2023-05-07T10:28:27;2.92;;;1.70;;
25015;SDS011;13029;46.286;7.488;2023-05-07T10:33:26;3.70;;;1.45;;
25015;SDS011;13029;46.286;7.488;2023-05-07T10:35:52;3.63;;;1.30;;
25015;SDS011;13029;46.286;7.488;2023-05-07T10:38:21;3.70;;;1.65;;
25015;SDS011;13029;46.286;7.488;2023-05-07T10:40:46;2.53;;;1.70;;
25015;SDS011;13029;46.286;7.488;2023-05-07T10:43:11;2.90;;;1.58;;
25015;SDS011;13029;46.286;7.488;2023-05-07T10:45:37;3.88;;;1.45;;
25015;SDS011;13029;46.286;7.488;2023-05-07T10:48:15;2.92;;;1.70;;
25015;SDS011;13029;46.286;7.488;2023-05-07T10:50:42;2.67;;;1.77;;
25015;SDS011;13029;46.286;7.488;2023-05-07T10:55:43;2.42;;;1.70;;
25015;SDS011;13029;46.286;7.488;2023-05-07T10:58:32;4.13;;;1.73;;
25015;SDS011;13029;46.286;7.488;2023-05-07T11:01:00;3.00;;;1.75;;
25015;SDS011;13029;46.286;7.488;2023-05-07T11:03:26;2.85;;;2.03;;
25015;SDS011;13029;46.286;7.488;2023-05-07T11:06:14;3.70;;;1.98;;
25015;SDS011;13029;46.286;7.488;2023-05-07T11:14:11;3.40;;;1.98;;
25015;SDS011;13029;46.286;7.488;2023-05-07T11:16:36;2.88;;;1.80;;
25015;SDS011;13029;46.286;7.488;2023-05-07T11:19:03;3.40;;;1.65;;
25015;SDS011;13029;46.286;7.488;2023-05-07T11:21:32;3.65;;;2.00;;
25015;SDS011;13029;46.286;7.488;2023-05-07T11:23:59;4.38;;;2.00;;
25015;SDS011;13029;46.286;7.488;2023-05-07T11:26:25;4.13;;;1.80;;
25015;SDS011;13029;46.286;7.488;2023-05-07T11:28:52;2.47;;;1.50;;
25015;SDS011;13029;46.286;7.488;2023-05-07T11:31:22;4.07;;;1.70;;
25015;SDS011;13029;46.286;7.488;2023-05-07T11:33:51;3.72;;;1.92;;
25015;SDS011;13029;46.286;7.488;2023-05-07T11:36:16;6.03;;;1.98;;
25015;SDS011;13029;46.286;7.488;2023-05-07T11:38:43;3.25;;;1.80;;
25015;SDS011;13029;46.286;7.488;2023-05-07T11:41:08;3.60;;;1.38;;
25015;SDS011;13029;46.286;7.488;2023-05-07T11:43:33;2.17;;;1.60;;
25015;SDS011;13029;46.286;7.488;2023-05-07T11:46:10;2.08;;;1.50;;
25015;SDS011;13029;46.286;7.488;2023-05-07T11:48:37;2.22;;;1.83;;
25015;SDS011;13029;46.286;7.488;2023-05-07T11:51:04;3.20;;;2.17;;
25015;SDS011;13029;46.286;7.488;2023-05-07T11:53:40;2.45;;;1.55;;
25015;SDS011;13029;46.286;7.488;2023-05-07T11:56:10;2.60;;;1.40;;
25015;SDS011;13029;46.286;7.488;2023-05-07T11:58:37;2.45;;;1.67;;
25015;SDS011;13029;46.286;7.488;2023-05-07T12:01:03;4.32;;;2.03;;
25015;SDS011;13029;46.286;7.488;2023-05-07T12:03:28;5.40;;;1.70;;
25015;SDS011;13029;46.286;7.488;2023-05-07T12:05:53;2.60;;;1.70;;
25015;SDS011;13029;46.286;7.488;2023-05-07T12:08:19;4.55;;;2.17;;
25015;SDS011;13029;46.286;7.488;2023-05-07T12:10:46;2.97;;;2.10;;
25015;SDS011;13029;46.286;7.488;2023-05-07T12:13:16;2.08;;;1.60;;
25015;SDS011;13029;46.286;7.488;2023-05-07T12:15:53;3.10;;;1.88;;
25015;SDS011;13029;46.286;7.488;2023-05-07T12:18:19;3.50;;;1.70;;
25015;SDS011;13029;46.286;7.488;2023-05-07T12:20:45;4.75;;;1.83;;
25015;SDS011;13029;46.286;7.488;2023-05-07T12:23:10;4.55;;;1.88;;
25015;SDS011;13029;46.286;7.488;2023-05-07T12:25:36;2.85;;;1.70;;
25015;SDS011;13029;46.286;7.488;2023-05-07T12:28:03;6.45;;;2.38;;
25015;SDS011;13029;46.286;7.488;2023-05-07T12:30:30;2.90;;;1.90;;
25015;SDS011;13029;46.286;7.488;2023-05-07T12:32:56;3.08;;;2.10;;
25015;SDS011;13029;46.286;7.488;2023-05-07T12:35:28;3.70;;;2.10;;
25015;SDS011;13029;46.286;7.488;2023-05-07T12:37:54;4.53;;;2.10;;
25015;SDS011;13029;46.286;7.488;2023-05-07T12:42:52;3.75;;;1.85;;
25015;SDS011;13029;46.286;7.488;2023-05-07T12:45:20;3.58;;;2.17;;
25015;SDS011;13029;46.286;7.488;2023-05-07T12:47:45;7.03;;;2.40;;
25015;SDS011;13029;46.286;7.488;2023-05-07T12:50:11;3.85;;;1.70;;
25015;SDS011;13029;46.286;7.488;2023-05-07T12:52:37;5.10;;;1.95;;
25015;SDS011;13029;46.286;7.488;2023-05-07T12:55:06;3.55;;;1.75;;
25015;SDS011;13029;46.286;7.488;2023-05-07T12:57:39;2.03;;;1.50;;
25015;SDS011;13029;46.286;7.488;2023-05-07T13:00:06;3.35;;;1.70;;
25015;SDS011;13029;46.286;7.488;2023-05-07T13:02:37;3.60;;;1.60;;
25015;SDS011;13029;46.286;7.488;2023-05-07T13:05:03;2.13;;;1.60;;
25015;SDS011;13029;46.286;7.488;2023-05-07T13:07:29;3.97;;;1.50;;
25015;SDS011;13029;46.286;7.488;2023-05-07T13:09:54;2.85;;;1.55;;
25015;SDS011;13029;46.286;7.488;2023-05-07T13:12:19;2.80;;;1.20;;
25015;SDS011;13029;46.286;7.488;2023-05-07T13:14:45;2.25;;;1.60;;
25015;SDS011;13029;46.286;7.488;2023-05-07T13:17:10;2.50;;;1.40;;
25015;SDS011;13029;46.286;7.488;2023-05-07T13:19:36;3.47;;;1.50;;
25015;SDS011;13029;46.286;7.488;2023-05-07T13:22:02;4.22;;;1.40;;
25015;SDS011;13029;46.286;7.488;2023-05-07T13:24:28;3.97;;;1.88;;
25015;SDS011;13029;46.286;7.488;2023-05-07T13:26:53;2.90;;;2.22;;
25015;SDS011;13029;46.286;7.488;2023-05-07T13:29:18;2.95;;;2.20;;
25015;SDS011;13029;46.286;7.488;2023-05-07T13:31:44;2.90;;;1.92;;
25015;SDS011;13029;46.286;7.488;2023-05-07T13:34:09;2.65;;;1.95;;
25015;SDS011;13029;46.286;7.488;2023-05-07T13:36:35;2.78;;;2.15;;
25015;SDS011;13029;46.286;7.488;2023-05-07T13:39:02;2.85;;;2.08;;
25015;SDS011;13029;46.286;7.488;2023-05-07T13:41:28;5.50;;;2.15;;
25015;SDS011;13029;46.286;7.488;2023-05-07T13:43:54;3.85;;;2.22;;
25015;SDS011;13029;46.286;7.488;2023-05-07T13:46:19;3.92;;;2.55;;
25015;SDS011;13029;46.286;7.488;2023-05-07T13:48:45;4.35;;;2.35;;
25015;SDS011;13029;46.286;7.488;2023-05-07T13:51:10;6.88;;;2.35;;
25015;SDS011;13029;46.286;7.488;2023-05-07T13:53:35;3.22;;;2.00;;
25015;SDS011;13029;46.286;7.488;2023-05-07T13:56:01;4.20;;;1.95;;
25015;SDS011;13029;46.286;7.488;2023-05-07T13:58:29;5.03;;;2.25;;
25015;SDS011;13029;46.286;7.488;2023-05-07T14:00:54;3.75;;;2.20;;
25015;SDS011;13029;46.286;7.488;2023-05-07T14:03:20;2.63;;;1.95;;
25015;SDS011;13029;46.286;7.488;2023-05-07T14:05:45;3.40;;;2.17;;
25015;SDS011;13029;46.286;7.488;2023-05-07T14:08:10;5.45;;;2.05;;
25015;SDS011;13029;46.286;7.488;2023-05-07T14:10:37;3.47;;;1.70;;
25015;SDS011;13029;46.286;7.488;2023-05-07T14:13:03;2.75;;;1.58;;
25015;SDS011;13029;46.286;7.488;2023-05-07T14:15:28;6.28;;;1.70;;
25015;SDS011;13029;46.286;7.488;2023-05-07T14:17:53;3.20;;;1.70;;
25015;SDS011;13029;46.286;7.488;2023-05-07T14:20:19;5.65;;;1.50;;
25015;SDS011;13029;46.286;7.488;2023-05-07T14:22:45;4.75;;;1.63;;
25015;SDS011;13029;46.286;7.488;2023-05-07T14:25:10;3.75;;;1.58;;
25015;SDS011;13029;46.286;7.488;2023-05-07T14:27:35;2.20;;;1.67;;
25015;SDS011;13029;46.286;7.488;2023-05-07T14:30:01;2.05;;;1.85;;
25015;SDS011;13029;46.286;7.488;2023-05-07T14:32:26;2.25;;;1.88;;
25015;SDS011;13029;46.286;7.488;2023-05-07T14:34:52;2.83;;;1.92;;
25015;SDS011;13029;46.286;7.488;2023-05-07T14:37:17;3.85;;;1.80;;
25015;SDS011;13029;46.286;7.488;2023-05-07T14:39:44;3.17;;;1.70;;
25015;SDS011;13029;46.286;7.488;2023-05-07T14:42:10;2.45;;;1.80;;
25015;SDS011;13029;46.286;7.488;2023-05-07T14:44:36;4.07;;;1.80;;
25015;SDS011;13029;46.286;7.488;2023-05-07T14:47:01;1.67;;;1.55;;
25015;SDS011;13029;46.286;7.488;2023-05-07T14:49:27;1.73;;;1.50;;
25015;SDS011;13029;46.286;7.488;2023-05-07T14:51:52;3.28;;;1.48;;
25015;SDS011;13029;46.286;7.488;2023-05-07T14:54:18;1.95;;;1.45;;